sensor_id;sensor_type;location;lat;lon;timestamp;temperature;humidity
45685;DHT22;46836;48.388;16.210;2022-09-01T00:00:00;17.00;99.90
45685;DHT22;46836;48.388;16.210;2022-09-01T00:02:29;16.90;99.90
45685;DHT22;46836;48.388;16.210;2022-09-01T00:04:56;16.90;99.90
45685;DHT22;46836;48.388;16.210;2022-09-01T00:07:26;16.90;99.90
45685;DHT22;46836;48.388;16.210;2022-09-01T00:09:57;16.80;99.90
45685;DHT22;46836;48.388;16.210;2022-09-01T00:12:26;16.80;99.90
45685;DHT22;46836;48.388;16.210;2022-09-01T00:14:53;16.80;99.90
45685;DHT22;46836;48.388;16.210;2022-09-01T00:17:20;16.80;99.90
45685;DHT22;46836;48.388;16.210;2022-09-01T00:19:48;16.90;99.90
45685;DHT22;46836;48.388;16.210;2022-09-01T00:22:15;16.80;99.90
45685;DHT22;46836;48.388;16.210;2022-09-01T00:24:42;16.80;99.90
45685;DHT22;46836;48.388;16.210;2022-09-01T00:27:09;16.80;99.90
45685;DHT22;46836;48.388;16.210;2022-09-01T00:29:36;16.80;99.90
45685;DHT22;46836;48.388;16.210;2022-09-01T00:32:12;16.80;99.90
45685;DHT22;46836;48.388;16.210;2022-09-01T00:34:39;16.80;99.90
45685;DHT22;46836;48.388;16.210;2022-09-01T00:37:06;16.80;99.90
45685;DHT22;46836;48.388;16.210;2022-09-01T00:39:34;16.80;99.90
45685;DHT22;46836;48.388;16.210;2022-09-01T00:42:02;16.90;99.90
45685;DHT22;46836;48.388;16.210;2022-09-01T00:44:29;16.90;99.90
45685;DHT22;46836;48.388;16.210;2022-09-01T00:46:57;16.90;99.90
45685;DHT22;46836;48.388;16.210;2022-09-01T00:49:28;16.90;99.90
45685;DHT22;46836;48.388;16.210;2022-09-01T00:52:04;16.90;99.90
45685;DHT22;46836;48.388;16.210;2022-09-01T00:54:36;16.90;99.90
45685;DHT22;46836;48.388;16.210;2022-09-01T00:57:07;16.90;99.90
45685;DHT22;46836;48.388;16.210;2022-09-01T00:59:40;16.90;99.90
45685;DHT22;46836;48.388;16.210;2022-09-01T01:02:09;16.90;99.90
45685;DHT22;46836;48.388;16.210;2022-09-01T01:04:37;16.80;99.90
45685;DHT22;46836;48.388;16.210;2022-09-01T01:07:06;16.80;99.90
45685;DHT22;46836;48.388;16.210;2022-09-01T01:09:39;16.80;99.90
45685;DHT22;46836;48.388;16.210;2022-09-01T01:12:08;16.80;99.90
45685;DHT22;46836;48.388;16.210;2022-09-01T01:14:37;16.80;99.90
45685;DHT22;46836;48.388;16.210;2022-09-01T01:17:05;16.90;99.90
45685;DHT22;46836;48.388;16.210;2022-09-01T01:19:41;16.90;99.90
45685;DHT22;46836;48.388;16.210;2022-09-01T01:22:37;16.90;99.90
45685;DHT22;46836;48.388;16.210;2022-09-01T01:25:24;16.90;99.90
45685;DHT22;46836;48.388;16.210;2022-09-01T01:27:52;17.00;99.90
45685;DHT22;46836;48.388;16.210;2022-09-01T01:30:29;17.00;99.90
45685;DHT22;46836;48.388;16.210;2022-09-01T01:33:02;17.00;99.90
45685;DHT22;46836;48.388;16.210;2022-09-01T01:35:30;17.00;99.90
45685;DHT22;46836;48.388;16.210;2022-09-01T01:38:01;17.00;99.90
45685;DHT22;46836;48.388;16.210;2022-09-01T01:40:28;17.00;99.90
45685;DHT22;46836;48.388;16.210;2022-09-01T01:42:56;17.00;99.90
45685;DHT22;46836;48.388;16.210;2022-09-01T01:45:24;17.00;99.90
45685;DHT22;46836;48.388;16.210;2022-09-01T01:47:53;17.00;99.90
45685;DHT22;46836;48.388;16.210;2022-09-01T01:50:29;17.00;99.90
45685;DHT22;46836;48.388;16.210;2022-09-01T01:53:00;17.00;99.90
45685;DHT22;46836;48.388;16.210;2022-09-01T01:55:37;17.00;99.90
45685;DHT22;46836;48.388;16.210;2022-09-01T01:58:04;17.00;99.90
45685;DHT22;46836;48.388;16.210;2022-09-01T02:00:33;17.00;99.90
45685;DHT22;46836;48.388;16.210;2022-09-01T02:03:01;17.00;99.90
45685;DHT22;46836;48.388;16.210;2022-09-01T02:05:31;17.00;99.90
45685;DHT22;46836;48.388;16.210;2022-09-01T02:08:07;17.00;99.90
45685;DHT22;46836;48.388;16.210;2022-09-01T02:10:39;17.00;99.90
45685;DHT22;46836;48.388;16.210;2022-09-01T02:13:08;17.00;99.90
45685;DHT22;46836;48.388;16.210;2022-09-01T02:15:45;17.00;99.90
45685;DHT22;46836;48.388;16.210;2022-09-01T02:18:17;17.00;99.90
45685;DHT22;46836;48.388;16.210;2022-09-01T02:20:47;16.90;99.90
45685;DHT22;46836;48.388;16.210;2022-09-01T02:23:16;16.90;99.90
45685;DHT22;46836;48.388;16.210;2022-09-01T02:25:51;17.00;99.90
45685;DHT22;46836;48.388;16.210;2022-09-01T02:28:39;16.90;99.90
45685;DHT22;46836;48.388;16.210;2022-09-01T02:31:09;16.90;99.90
45685;DHT22;46836;48.388;16.210;2022-09-01T02:33:38;16.90;99.90
45685;DHT22;46836;48.388;16.210;2022-09-01T02:36:14;16.90;99.90
45685;DHT22;46836;48.388;16.210;2022-09-01T02:38:43;16.90;99.90
45685;DHT22;46836;48.388;16.210;2022-09-01T02:41:18;16.90;99.90
45685;DHT22;46836;48.388;16.210;2022-09-01T02:43:49;16.90;99.90
45685;DHT22;46836;48.388;16.210;2022-09-01T02:46:17;16.80;99.90
45685;DHT22;46836;48.388;16.210;2022-09-01T02:48:51;16.80;99.90
45685;DHT22;46836;48.388;16.210;2022-09-01T02:51:21;16.90;99.90
45685;DHT22;46836;48.388;16.210;2022-09-01T02:53:51;16.90;99.90
45685;DHT22;46836;48.388;16.210;2022-09-01T02:56:20;16.90;99.90
45685;DHT22;46836;48.388;16.210;2022-09-01T02:58:51;16.90;99.90
45685;DHT22;46836;48.388;16.210;2022-09-01T03:01:28;16.90;99.90
45685;DHT22;46836;48.388;16.210;2022-09-01T03:03:59;16.90;99.90
45685;DHT22;46836;48.388;16.210;2022-09-01T03:06:28;16.80;99.90
45685;DHT22;46836;48.388;16.210;2022-09-01T03:08:58;16.90;99.90
45685;DHT22;46836;48.388;16.210;2022-09-01T03:11:28;16.80;99.90
45685;DHT22;46836;48.388;16.210;2022-09-01T03:13:56;16.80;99.90
45685;DHT22;46836;48.388;16.210;2022-09-01T03:16:23;16.80;99.90
45685;DHT22;46836;48.388;16.210;2022-09-01T03:18:51;16.80;99.90
45685;DHT22;46836;48.388;16.210;2022-09-01T03:21:19;16.80;99.90
45685;DHT22;46836;48.388;16.210;2022-09-01T03:23:47;16.80;99.90
45685;DHT22;46836;48.388;16.210;2022-09-01T03:26:15;16.80;99.90
45685;DHT22;46836;48.388;16.210;2022-09-01T03:28:45;16.80;99.90
45685;DHT22;46836;48.388;16.210;2022-09-01T03:31:13;16.80;99.90
45685;DHT22;46836;48.388;16.210;2022-09-01T03:33:41;16.80;99.90
45685;DHT22;46836;48.388;16.210;2022-09-01T03:36:08;16.80;99.90
45685;DHT22;46836;48.388;16.210;2022-09-01T03:38:49;16.80;99.90
45685;DHT22;46836;48.388;16.210;2022-09-01T03:41:20;16.80;99.90
45685;DHT22;46836;48.388;16.210;2022-09-01T03:43:48;16.80;99.90
45685;DHT22;46836;48.388;16.210;2022-09-01T03:46:16;16.80;99.90
45685;DHT22;46836;48.388;16.210;2022-09-01T03:48:50;16.80;99.90
45685;DHT22;46836;48.388;16.210;2022-09-01T03:51:19;16.80;99.90
45685;DHT22;46836;48.388;16.210;2022-09-01T03:53:50;16.80;99.90
45685;DHT22;46836;48.388;16.210;2022-09-01T03:56:22;16.80;99.90
45685;DHT22;46836;48.388;16.210;2022-09-01T03:58:55;16.80;99.90
45685;DHT22;46836;48.388;16.210;2022-09-01T04:01:27;16.80;99.90
45685;DHT22;46836;48.388;16.210;2022-09-01T04:03:55;16.70;99.90
45685;DHT22;46836;48.388;16.210;2022-09-01T04:06:24;16.80;99.90
45685;DHT22;46836;48.388;16.210;2022-09-01T04:08:52;16.80;99.90
45685;DHT22;46836;48.388;16.210;2022-09-01T04:11:28;16.80;99.90
45685;DHT22;46836;48.388;16.210;2022-09-01T04:13:56;16.80;99.90
45685;DHT22;46836;48.388;16.210;2022-09-01T04:16:26;16.80;99.90
45685;DHT22;46836;48.388;16.210;2022-09-01T04:19:15;16.80;99.90
45685;DHT22;46836;48.388;16.210;2022-09-01T04:21:48;16.80;99.90
45685;DHT22;46836;48.388;16.210;2022-09-01T04:24:16;16.80;99.90
45685;DHT22;46836;48.388;16.210;2022-09-01T04:26:46;16.80;99.90
45685;DHT22;46836;48.388;16.210;2022-09-01T04:29:19;16.80;99.90
45685;DHT22;46836;48.388;16.210;2022-09-01T04:31:49;16.80;99.90
45685;DHT22;46836;48.388;16.210;2022-09-01T04:34:20;16.80;99.90
45685;DHT22;46836;48.388;16.210;2022-09-01T04:36:48;16.80;99.90
45685;DHT22;46836;48.388;16.210;2022-09-01T04:39:20;16.80;99.90
45685;DHT22;46836;48.388;16.210;2022-09-01T04:41:48;16.80;99.90
45685;DHT22;46836;48.388;16.210;2022-09-01T04:44:16;16.90;99.90
45685;DHT22;46836;48.388;16.210;2022-09-01T04:46:45;16.90;99.90
45685;DHT22;46836;48.388;16.210;2022-09-01T04:49:16;17.00;99.90
45685;DHT22;46836;48.388;16.210;2022-09-01T04:51:50;17.00;99.90
45685;DHT22;46836;48.388;16.210;2022-09-01T04:54:21;17.00;99.90
45685;DHT22;46836;48.388;16.210;2022-09-01T04:56:49;17.10;99.90
45685;DHT22;46836;48.388;16.210;2022-09-01T04:59:20;17.10;99.90
45685;DHT22;46836;48.388;16.210;2022-09-01T05:01:48;17.20;99.90
45685;DHT22;46836;48.388;16.210;2022-09-01T05:04:23;17.30;99.90
45685;DHT22;46836;48.388;16.210;2022-09-01T05:06:55;17.40;99.90
45685;DHT22;46836;48.388;16.210;2022-09-01T05:09:31;17.40;99.90
45685;DHT22;46836;48.388;16.210;2022-09-01T05:12:02;17.40;99.90
45685;DHT22;46836;48.388;16.210;2022-09-01T05:14:44;17.30;99.90
45685;DHT22;46836;48.388;16.210;2022-09-01T05:17:13;17.40;99.90
45685;DHT22;46836;48.388;16.210;2022-09-01T05:19:43;17.40;99.90
45685;DHT22;46836;48.388;16.210;2022-09-01T05:22:14;17.40;99.90
45685;DHT22;46836;48.388;16.210;2022-09-01T05:24:44;17.30;99.90
45685;DHT22;46836;48.388;16.210;2022-09-01T05:27:11;17.30;99.90
45685;DHT22;46836;48.388;16.210;2022-09-01T05:29:40;17.20;99.90
45685;DHT22;46836;48.388;16.210;2022-09-01T05:32:07;17.30;99.90
45685;DHT22;46836;48.388;16.210;2022-09-01T05:34:36;17.30;99.90
45685;DHT22;46836;48.388;16.210;2022-09-01T05:37:07;17.30;99.90
45685;DHT22;46836;48.388;16.210;2022-09-01T05:39:39;17.30;99.90
45685;DHT22;46836;48.388;16.210;2022-09-01T05:42:06;17.40;99.90
45685;DHT22;46836;48.388;16.210;2022-09-01T05:44:38;17.40;99.90
45685;DHT22;46836;48.388;16.210;2022-09-01T05:47:10;17.40;99.90
45685;DHT22;46836;48.388;16.210;2022-09-01T05:49:47;17.50;99.90
45685;DHT22;46836;48.388;16.210;2022-09-01T05:52:15;17.50;99.90
45685;DHT22;46836;48.388;16.210;2022-09-01T05:54:42;17.60;99.90
45685;DHT22;46836;48.388;16.210;2022-09-01T05:57:09;17.60;99.90
45685;DHT22;46836;48.388;16.210;2022-09-01T05:59:56;17.60;99.90
45685;DHT22;46836;48.388;16.210;2022-09-01T06:02:25;17.70;99.90
45685;DHT22;46836;48.388;16.210;2022-09-01T06:04:53;17.70;99.90
45685;DHT22;46836;48.388;16.210;2022-09-01T06:07:22;17.80;99.90
45685;DHT22;46836;48.388;16.210;2022-09-01T06:09:51;17.80;99.90
45685;DHT22;46836;48.388;16.210;2022-09-01T06:12:19;17.80;99.90
45685;DHT22;46836;48.388;16.210;2022-09-01T06:14:52;17.80;99.90
45685;DHT22;46836;48.388;16.210;2022-09-01T06:17:22;17.90;99.90
45685;DHT22;46836;48.388;16.210;2022-09-01T06:19:52;17.90;99.90
45685;DHT22;46836;48.388;16.210;2022-09-01T06:22:22;18.00;99.90
45685;DHT22;46836;48.388;16.210;2022-09-01T06:24:50;18.00;99.90
45685;DHT22;46836;48.388;16.210;2022-09-01T06:27:27;18.10;99.90
45685;DHT22;46836;48.388;16.210;2022-09-01T06:29:55;18.10;99.90
45685;DHT22;46836;48.388;16.210;2022-09-01T06:32:24;18.20;99.90
45685;DHT22;46836;48.388;16.210;2022-09-01T06:34:51;18.20;99.90
45685;DHT22;46836;48.388;16.210;2022-09-01T06:37:18;18.30;99.90
45685;DHT22;46836;48.388;16.210;2022-09-01T06:39:49;18.30;99.90
45685;DHT22;46836;48.388;16.210;2022-09-01T06:42:16;18.40;99.90
45685;DHT22;46836;48.388;16.210;2022-09-01T06:44:45;18.40;99.90
45685;DHT22;46836;48.388;16.210;2022-09-01T06:47:12;18.50;99.90
45685;DHT22;46836;48.388;16.210;2022-09-01T06:49:41;18.60;99.90
45685;DHT22;46836;48.388;16.210;2022-09-01T06:52:09;18.70;99.90
45685;DHT22;46836;48.388;16.210;2022-09-01T06:54:37;18.70;99.90
45685;DHT22;46836;48.388;16.210;2022-09-01T06:57:06;18.80;99.90
45685;DHT22;46836;48.388;16.210;2022-09-01T06:59:53;18.90;99.90
45685;DHT22;46836;48.388;16.210;2022-09-01T07:02:21;18.90;99.90
45685;DHT22;46836;48.388;16.210;2022-09-01T07:04:53;19.00;99.90
45685;DHT22;46836;48.388;16.210;2022-09-01T07:07:20;19.00;99.90
45685;DHT22;46836;48.388;16.210;2022-09-01T07:10:08;19.00;99.90
45685;DHT22;46836;48.388;16.210;2022-09-01T07:12:54;19.10;99.90
45685;DHT22;46836;48.388;16.210;2022-09-01T07:15:39;19.10;99.90
45685;DHT22;46836;48.388;16.210;2022-09-01T07:18:27;19.10;99.90
45685;DHT22;46836;48.388;16.210;2022-09-01T07:20:56;19.30;99.90
45685;DHT22;46836;48.388;16.210;2022-09-01T07:23:44;19.30;99.90
45685;DHT22;46836;48.388;16.210;2022-09-01T07:26:33;19.30;99.90
45685;DHT22;46836;48.388;16.210;2022-09-01T07:29:12;19.60;99.90
45685;DHT22;46836;48.388;16.210;2022-09-01T07:31:41;19.70;99.90
45685;DHT22;46836;48.388;16.210;2022-09-01T07:34:29;19.70;99.90
45685;DHT22;46836;48.388;16.210;2022-09-01T07:37:17;19.90;99.90
45685;DHT22;46836;48.388;16.210;2022-09-01T07:40:13;19.90;99.90
45685;DHT22;46836;48.388;16.210;2022-09-01T07:43:08;20.10;99.90
45685;DHT22;46836;48.388;16.210;2022-09-01T07:45:44;20.10;99.90
45685;DHT22;46836;48.388;16.210;2022-09-01T07:48:25;20.20;99.90
45685;DHT22;46836;48.388;16.210;2022-09-01T07:51:15;20.30;99.90
45685;DHT22;46836;48.388;16.210;2022-09-01T07:54:03;20.40;99.90
45685;DHT22;46836;48.388;16.210;2022-09-01T07:56:31;20.50;99.90
45685;DHT22;46836;48.388;16.210;2022-09-01T07:59:05;20.60;99.90
45685;DHT22;46836;48.388;16.210;2022-09-01T08:01:35;20.60;99.90
45685;DHT22;46836;48.388;16.210;2022-09-01T08:04:02;20.60;99.90
45685;DHT22;46836;48.388;16.210;2022-09-01T08:06:30;20.70;99.90
45685;DHT22;46836;48.388;16.210;2022-09-01T08:09:06;20.90;99.90
45685;DHT22;46836;48.388;16.210;2022-09-01T08:11:37;20.90;99.90
45685;DHT22;46836;48.388;16.210;2022-09-01T08:14:24;21.10;99.90
45685;DHT22;46836;48.388;16.210;2022-09-01T08:16:51;21.10;99.90
45685;DHT22;46836;48.388;16.210;2022-09-01T08:19:19;21.20;99.90
45685;DHT22;46836;48.388;16.210;2022-09-01T08:21:46;21.30;99.90
45685;DHT22;46836;48.388;16.210;2022-09-01T08:24:13;21.50;99.90
45685;DHT22;46836;48.388;16.210;2022-09-01T08:26:41;21.70;99.90
45685;DHT22;46836;48.388;16.210;2022-09-01T08:29:09;21.80;99.90
45685;DHT22;46836;48.388;16.210;2022-09-01T08:31:36;22.00;99.90
45685;DHT22;46836;48.388;16.210;2022-09-01T08:34:03;21.80;99.90
45685;DHT22;46836;48.388;16.210;2022-09-01T08:36:32;22.00;99.90
45685;DHT22;46836;48.388;16.210;2022-09-01T08:39:01;22.00;99.90
45685;DHT22;46836;48.388;16.210;2022-09-01T08:47:14;22.10;99.90
45685;DHT22;46836;48.388;16.210;2022-09-01T08:49:44;22.00;99.90
45685;DHT22;46836;48.388;16.210;2022-09-01T08:52:34;22.00;99.90
45685;DHT22;46836;48.388;16.210;2022-09-01T08:55:53;21.80;99.90
45685;DHT22;46836;48.388;16.210;2022-09-01T08:57:59;21.80;99.90
45685;DHT22;46836;48.388;16.210;2022-09-01T09:00:30;21.80;99.90
45685;DHT22;46836;48.388;16.210;2022-09-01T09:06:00;21.70;99.90
45685;DHT22;46836;48.388;16.210;2022-09-01T09:17:09;22.10;99.90
45685;DHT22;46836;48.388;16.210;2022-09-01T09:19:41;22.30;99.90
45685;DHT22;46836;48.388;16.210;2022-09-01T09:22:12;22.40;99.90
45685;DHT22;46836;48.388;16.210;2022-09-01T09:27:22;22.50;99.90
45685;DHT22;46836;48.388;16.210;2022-09-01T09:29:55;22.40;99.90
45685;DHT22;46836;48.388;16.210;2022-09-01T09:35:33;22.30;99.90
45685;DHT22;46836;48.388;16.210;2022-09-01T09:43:48;22.10;99.90
45685;DHT22;46836;48.388;16.210;2022-09-01T09:49:15;21.90;99.90
45685;DHT22;46836;48.388;16.210;2022-09-01T09:52:14;21.90;99.90
45685;DHT22;46836;48.388;16.210;2022-09-01T09:55:04;21.80;99.90
45685;DHT22;46836;48.388;16.210;2022-09-01T09:57:38;21.70;99.90
45685;DHT22;46836;48.388;16.210;2022-09-01T10:00:20;21.90;99.90
45685;DHT22;46836;48.388;16.210;2022-09-01T10:02:56;22.00;99.90
45685;DHT22;46836;48.388;16.210;2022-09-01T10:08:11;22.00;99.90
45685;DHT22;46836;48.388;16.210;2022-09-01T10:10:45;22.10;99.90
45685;DHT22;46836;48.388;16.210;2022-09-01T10:13:25;22.10;99.90
45685;DHT22;46836;48.388;16.210;2022-09-01T10:16:06;22.10;99.90
45685;DHT22;46836;48.388;16.210;2022-09-01T10:18:39;22.20;99.90
45685;DHT22;46836;48.388;16.210;2022-09-01T10:21:12;22.20;99.90
45685;DHT22;46836;48.388;16.210;2022-09-01T10:23:41;22.40;99.90
45685;DHT22;46836;48.388;16.210;2022-09-01T10:26:14;22.50;99.90
45685;DHT22;46836;48.388;16.210;2022-09-01T10:31:50;22.70;99.90
45685;DHT22;46836;48.388;16.210;2022-09-01T10:34:40;23.10;99.90
45685;DHT22;46836;48.388;16.210;2022-09-01T10:37:08;23.40;99.90
45685;DHT22;46836;48.388;16.210;2022-09-01T10:40:13;23.60;99.90
45685;DHT22;46836;48.388;16.210;2022-09-01T10:42:48;23.60;99.90
45685;DHT22;46836;48.388;16.210;2022-09-01T10:47:49;23.90;99.90
45685;DHT22;46836;48.388;16.210;2022-09-01T10:50:29;23.90;99.90
45685;DHT22;46836;48.388;16.210;2022-09-01T10:53:03;23.90;99.90
45685;DHT22;46836;48.388;16.210;2022-09-01T10:55:43;24.10;99.90
45685;DHT22;46836;48.388;16.210;2022-09-01T11:06:59;24.50;99.90
45685;DHT22;46836;48.388;16.210;2022-09-01T11:13:23;23.90;99.90
45685;DHT22;46836;48.388;16.210;2022-09-01T11:15:54;24.10;99.90
45685;DHT22;46836;48.388;16.210;2022-09-01T11:18:28;24.30;99.90
45685;DHT22;46836;48.388;16.210;2022-09-01T11:21:23;24.50;99.90
45685;DHT22;46836;48.388;16.210;2022-09-01T11:26:57;23.50;99.90
45685;DHT22;46836;48.388;16.210;2022-09-01T11:32:26;23.60;99.90
45685;DHT22;46836;48.388;16.210;2022-09-01T11:35:00;23.50;99.90
45685;DHT22;46836;48.388;16.210;2022-09-01T11:37:31;23.40;99.90
45685;DHT22;46836;48.388;16.210;2022-09-01T11:40:02;23.40;99.90
45685;DHT22;46836;48.388;16.210;2022-09-01T11:42:40;23.30;99.90
45685;DHT22;46836;48.388;16.210;2022-09-01T11:45:22;23.30;99.90
45685;DHT22;46836;48.388;16.210;2022-09-01T11:47:54;23.20;99.90
45685;DHT22;46836;48.388;16.210;2022-09-01T11:53:00;23.20;99.90
45685;DHT22;46836;48.388;16.210;2022-09-01T11:57:59;23.60;99.90
45685;DHT22;46836;48.388;16.210;2022-09-01T12:00:32;23.90;99.90
45685;DHT22;46836;48.388;16.210;2022-09-01T12:06:03;24.00;99.90
45685;DHT22;46836;48.388;16.210;2022-09-01T12:08:37;23.80;99.90
45685;DHT22;46836;48.388;16.210;2022-09-01T12:11:18;23.50;99.90
45685;DHT22;46836;48.388;16.210;2022-09-01T12:14:02;23.30;99.90
45685;DHT22;46836;48.388;16.210;2022-09-01T12:16:36;23.10;99.90
45685;DHT22;46836;48.388;16.210;2022-09-01T12:19:06;22.90;99.90
45685;DHT22;46836;48.388;16.210;2022-09-01T12:21:39;23.00;99.90
45685;DHT22;46836;48.388;16.210;2022-09-01T12:24:21;23.30;99.90
45685;DHT22;46836;48.388;16.210;2022-09-01T12:26:50;23.70;99.90
45685;DHT22;46836;48.388;16.210;2022-09-01T12:29:20;24.00;99.90
45685;DHT22;46836;48.388;16.210;2022-09-01T12:31:49;24.20;99.90
45685;DHT22;46836;48.388;16.210;2022-09-01T12:34:27;24.70;99.90
45685;DHT22;46836;48.388;16.210;2022-09-01T12:39:38;25.30;99.90
45685;DHT22;46836;48.388;16.210;2022-09-01T12:47:10;23.90;99.90
45685;DHT22;46836;48.388;16.210;2022-09-01T12:49:43;23.50;98.90
45685;DHT22;46836;48.388;16.210;2022-09-01T12:54:49;23.20;99.40
45685;DHT22;46836;48.388;16.210;2022-09-01T12:57:31;23.20;98.80
45685;DHT22;46836;48.388;16.210;2022-09-01T13:02:42;23.40;98.30
45685;DHT22;46836;48.388;16.210;2022-09-01T13:07:47;23.80;94.80
45685;DHT22;46836;48.388;16.210;2022-09-01T13:10:14;23.90;96.50
45685;DHT22;46836;48.388;16.210;2022-09-01T13:12:43;23.80;96.90
45685;DHT22;46836;48.388;16.210;2022-09-01T13:15:12;23.90;96.20
45685;DHT22;46836;48.388;16.210;2022-09-01T13:17:40;23.90;97.90
45685;DHT22;46836;48.388;16.210;2022-09-01T13:20:07;24.10;97.20
45685;DHT22;46836;48.388;16.210;2022-09-01T13:22:35;24.20;96.50
45685;DHT22;46836;48.388;16.210;2022-09-01T13:25:04;24.10;97.30
45685;DHT22;46836;48.388;16.210;2022-09-01T13:27:31;24.10;95.80
45685;DHT22;46836;48.388;16.210;2022-09-01T13:29:58;23.80;95.70
45685;DHT22;46836;48.388;16.210;2022-09-01T13:32:25;23.70;95.30
45685;DHT22;46836;48.388;16.210;2022-09-01T13:34:53;23.70;94.50
45685;DHT22;46836;48.388;16.210;2022-09-01T13:37:21;23.60;96.20
45685;DHT22;46836;48.388;16.210;2022-09-01T13:39:48;23.70;95.30
45685;DHT22;46836;48.388;16.210;2022-09-01T13:42:16;23.80;94.90
45685;DHT22;46836;48.388;16.210;2022-09-01T13:44:44;24.00;93.70
45685;DHT22;46836;48.388;16.210;2022-09-01T13:47:18;24.00;92.70
45685;DHT22;46836;48.388;16.210;2022-09-01T13:50:06;24.10;93.40
45685;DHT22;46836;48.388;16.210;2022-09-01T13:52:40;24.30;94.20
45685;DHT22;46836;48.388;16.210;2022-09-01T13:55:10;24.40;93.80
45685;DHT22;46836;48.388;16.210;2022-09-01T13:57:38;24.50;93.70
45685;DHT22;46836;48.388;16.210;2022-09-01T14:00:09;24.60;93.70
45685;DHT22;46836;48.388;16.210;2022-09-01T14:02:41;24.50;91.80
45685;DHT22;46836;48.388;16.210;2022-09-01T14:05:35;24.60;91.10
45685;DHT22;46836;48.388;16.210;2022-09-01T14:08:05;24.90;90.90
45685;DHT22;46836;48.388;16.210;2022-09-01T14:10:36;25.00;90.50
45685;DHT22;46836;48.388;16.210;2022-09-01T14:13:03;24.90;92.70
45685;DHT22;46836;48.388;16.210;2022-09-01T14:15:30;24.90;89.60
45685;DHT22;46836;48.388;16.210;2022-09-01T14:17:57;24.70;90.60
45685;DHT22;46836;48.388;16.210;2022-09-01T14:20:28;24.40;90.80
45685;DHT22;46836;48.388;16.210;2022-09-01T14:22:58;24.10;91.70
45685;DHT22;46836;48.388;16.210;2022-09-01T14:25:25;23.80;91.20
45685;DHT22;46836;48.388;16.210;2022-09-01T14:27:52;23.70;92.00
45685;DHT22;46836;48.388;16.210;2022-09-01T14:30:23;23.70;92.10
45685;DHT22;46836;48.388;16.210;2022-09-01T14:32:57;23.80;91.20
45685;DHT22;46836;48.388;16.210;2022-09-01T14:35:26;24.00;91.70
45685;DHT22;46836;48.388;16.210;2022-09-01T14:37:54;24.00;90.60
45685;DHT22;46836;48.388;16.210;2022-09-01T14:40:22;24.00;91.00
45685;DHT22;46836;48.388;16.210;2022-09-01T14:42:51;24.10;90.30
45685;DHT22;46836;48.388;16.210;2022-09-01T14:45:21;24.20;88.80
45685;DHT22;46836;48.388;16.210;2022-09-01T14:47:51;24.30;90.30
45685;DHT22;46836;48.388;16.210;2022-09-01T14:50:20;24.40;87.50
45685;DHT22;46836;48.388;16.210;2022-09-01T14:52:54;24.30;89.90
45685;DHT22;46836;48.388;16.210;2022-09-01T14:55:24;24.20;89.50
45685;DHT22;46836;48.388;16.210;2022-09-01T14:57:51;24.20;90.20
45685;DHT22;46836;48.388;16.210;2022-09-01T15:00:21;24.20;90.10
45685;DHT22;46836;48.388;16.210;2022-09-01T15:02:52;24.20;88.30
45685;DHT22;46836;48.388;16.210;2022-09-01T15:05:20;24.30;90.70
45685;DHT22;46836;48.388;16.210;2022-09-01T15:07:47;24.30;90.10
45685;DHT22;46836;48.388;16.210;2022-09-01T15:10:17;24.40;90.90
45685;DHT22;46836;48.388;16.210;2022-09-01T15:12:53;24.40;89.60
45685;DHT22;46836;48.388;16.210;2022-09-01T15:15:20;24.30;83.90
45685;DHT22;46836;48.388;16.210;2022-09-01T15:17:48;24.10;84.30
45685;DHT22;46836;48.388;16.210;2022-09-01T15:20:15;24.10;87.20
45685;DHT22;46836;48.388;16.210;2022-09-01T15:23:01;24.10;87.70
45685;DHT22;46836;48.388;16.210;2022-09-01T15:25:28;24.10;87.90
45685;DHT22;46836;48.388;16.210;2022-09-01T15:27:55;24.00;88.50
45685;DHT22;46836;48.388;16.210;2022-09-01T15:30:22;24.00;87.90
45685;DHT22;46836;48.388;16.210;2022-09-01T15:32:51;23.90;89.30
45685;DHT22;46836;48.388;16.210;2022-09-01T15:35:19;23.80;87.30
45685;DHT22;46836;48.388;16.210;2022-09-01T15:37:47;23.70;88.00
45685;DHT22;46836;48.388;16.210;2022-09-01T15:40:16;23.80;90.00
45685;DHT22;46836;48.388;16.210;2022-09-01T15:42:44;23.80;86.40
45685;DHT22;46836;48.388;16.210;2022-09-01T15:45:14;23.70;89.00
45685;DHT22;46836;48.388;16.210;2022-09-01T15:47:41;23.80;88.70
45685;DHT22;46836;48.388;16.210;2022-09-01T15:50:13;23.70;87.60
45685;DHT22;46836;48.388;16.210;2022-09-01T15:53:08;23.70;89.60
45685;DHT22;46836;48.388;16.210;2022-09-01T15:55:43;23.60;90.30
45685;DHT22;46836;48.388;16.210;2022-09-01T15:58:13;23.50;89.00
45685;DHT22;46836;48.388;16.210;2022-09-01T16:00:41;23.50;88.40
45685;DHT22;46836;48.388;16.210;2022-09-01T16:03:09;23.40;88.60
45685;DHT22;46836;48.388;16.210;2022-09-01T16:05:37;23.30;87.20
45685;DHT22;46836;48.388;16.210;2022-09-01T16:08:06;23.10;86.10
45685;DHT22;46836;48.388;16.210;2022-09-01T16:10:38;23.20;89.40
45685;DHT22;46836;48.388;16.210;2022-09-01T16:13:06;23.20;87.00
45685;DHT22;46836;48.388;16.210;2022-09-01T16:15:34;23.10;87.10
45685;DHT22;46836;48.388;16.210;2022-09-01T16:21:29;23.00;83.30
45685;DHT22;46836;48.388;16.210;2022-09-01T16:23:50;23.00;85.60
45685;DHT22;46836;48.388;16.210;2022-09-01T16:26:20;22.60;86.40
45685;DHT22;46836;48.388;16.210;2022-09-01T16:28:51;22.30;86.60
45685;DHT22;46836;48.388;16.210;2022-09-01T16:31:23;22.30;89.10
45685;DHT22;46836;48.388;16.210;2022-09-01T16:33:54;22.30;89.50
45685;DHT22;46836;48.388;16.210;2022-09-01T16:42:12;22.20;90.40
45685;DHT22;46836;48.388;16.210;2022-09-01T16:45:00;22.10;90.50
45685;DHT22;46836;48.388;16.210;2022-09-01T16:50:29;21.90;91.10
45685;DHT22;46836;48.388;16.210;2022-09-01T16:56:08;21.70;90.30
45685;DHT22;46836;48.388;16.210;2022-09-01T17:04:18;21.40;91.30
45685;DHT22;46836;48.388;16.210;2022-09-01T17:09:34;21.10;92.00
45685;DHT22;46836;48.388;16.210;2022-09-01T17:15:01;20.90;92.30
45685;DHT22;46836;48.388;16.210;2022-09-01T17:17:43;20.80;92.20
45685;DHT22;46836;48.388;16.210;2022-09-01T17:20:13;20.70;92.60
45685;DHT22;46836;48.388;16.210;2022-09-01T17:22:46;20.60;92.80
45685;DHT22;46836;48.388;16.210;2022-09-01T17:25:30;20.50;92.80
45685;DHT22;46836;48.388;16.210;2022-09-01T17:28:15;20.40;93.00
45685;DHT22;46836;48.388;16.210;2022-09-01T17:30:55;20.30;93.00
45685;DHT22;46836;48.388;16.210;2022-09-01T17:33:45;20.20;93.20